Ekspressen — LCBK — position and weather

sailwx.info

Track history (hours):
 
Tides and Currents Weather Stations Pressure Air Temp Water Temp Dewpoint Dewpoint Depression Visibility Wind Speed Wind Dir Waves Ship Positions

Ekspressen

Last reported at 2017-May-24 15:41 UTC. Time now 2017-May-27 04:20 UTC.
Position N 60°24' E 005°14'.

Length 33 m; draft 2 m.

Type: High speed craft. MMSI: 258416000.

Date/timePositionNaut miles runAvg speedWind from/ knotsBaromVisibWave heightAir tempDewpointWater temp
2017-May-24 15:41N 60°24' E 005°14'316.0
2017-May-24 15:30N 60°24' E 005°19'0 0.0
2017-May-24 15:00N 60°24' E 005°19'0 0.7
2017-May-24 14:30N 60°24' E 005°19'2 1.8
2017-May-24 13:29N 60°24' E 005°15'0 0.2
2017-May-24 12:56N 60°24' E 005°15'1 1.2
2017-May-24 12:26N 60°24' E 005°14'3 6.2
2017-May-24 12:01N 60°24' E 005°19'2 3.3
2017-May-24 11:25N 60°24' E 005°15'2 4.9
2017-May-24 11:00N 60°24' E 005°19'3 4.6
2017-May-24 10:26N 60°24' E 005°14'0 0.7
2017-May-24 09:56N 60°24' E 005°15'0 0.1
2017-May-24 09:26N 60°24' E 005°15'2 5.5
2017-May-24 09:00N 60°24' E 005°19'2 4.3
2017-May-24 08:30N 60°24' E 005°15'0 0.0
2017-May-24 08:00N 60°24' E 005°15'0 0.1
2017-May-24 07:30N 60°24' E 005°15'0 0.2
2017-May-24 07:00N 60°24' E 005°15'1 1.0
2017-May-24 06:28N 60°24' E 005°14'0 0.5
2017-May-24 05:56N 60°24' E 005°14'0 0.3
2017-May-24 05:19N 60°24' E 005°15'1 3.8
2017-May-24 05:00N 60°24' E 005°17'1 1.3
2017-May-24 04:31N 60°24' E 005°19'0 0.8
2017-May-24 04:01N 60°24' E 005°19'2 0.2
2017-May-23 16:10N 60°24' E 005°15'212.5
2017-May-23 16:00N 60°24' E 005°19'0 0.0
2017-May-23 15:31N 60°24' E 005°19'0 0.0
2017-May-23 15:00N 60°24' E 005°19'0 0.4
2017-May-23 13:59N 60°24' E 005°19'0 0.1
2017-May-23 13:25N 60°24' E 005°19'0 0.4
2017-May-23 12:53N 60°24' E 005°18'0 0.5
2017-May-23 12:24N 60°24' E 005°18'1 2.0
2017-May-23 12:00N 60°24' E 005°19'1 1.5
2017-May-23 11:22N 60°24' E 005°18'1 2.5
2017-May-23 11:00N 60°24' E 005°19'1 1.0
2017-May-23 10:23N 60°24' E 005°18'0 0.7
2017-May-23 09:54N 60°24' E 005°18'1 2.5
2017-May-23 09:27N 60°24' E 005°15'2 4.6
2017-May-23 09:00N 60°24' E 005°19'1 1.7
2017-May-23 08:27N 60°24' E 005°18'0 0.1
2017-May-23 07:57N 60°24' E 005°18'0 0.1
2017-May-23 07:27N 60°24' E 005°18'1 3.1
2017-May-23 07:00N 60°24' E 005°15'0 0.7
2017-May-23 06:30N 60°24' E 005°14'0 0.4
2017-May-23 05:59N 60°24' E 005°14'0 0.0
2017-May-23 05:23N 60°24' E 005°14'2 4.2
2017-May-23 05:00N 60°24' E 005°17'1 2.0
2017-May-23 04:30N 60°24' E 005°19'0 0.0
2017-May-23 04:01N 60°24' E 005°19'2 0.2
2017-May-22 16:12N 60°24' E 005°14'212.8
2017-May-22 16:00N 60°24' E 005°19'0 0.0
2017-May-22 15:30N 60°24' E 005°19'0 0.0
2017-May-22 15:01N 60°24' E 005°19'0 0.4
2017-May-22 14:00N 60°24' E 005°19'1 1.4
2017-May-22 13:28N 60°24' E 005°17'0 0.5
2017-May-22 12:52N 60°24' E 005°18'0 0.0
2017-May-22 12:21N 60°24' E 005°18'1 2.4
2017-May-22 12:00N 60°24' E 005°19'0 0.0
2017-May-22 11:26N 60°24' E 005°19'0 0.0
2017-May-22 10:56N 60°24' E 005°19'0 0.0
2017-May-22 10:29N 60°24' E 005°19'0 0.0
2017-May-22 09:32N 60°24' E 005°19'0 0.0
2017-May-22 09:29N 60°24' E 005°19'0 0.0
2017-May-22 08:56N 60°24' E 005°19'0 0.0
2017-May-22 08:17N 60°24' E 005°19'0 0.0
2017-May-22 07:56N 60°24' E 005°19'0 0.0
2017-May-22 07:30N 60°24' E 005°19'1 2.5
2017-May-22 07:00N 60°24' E 005°17'1 2.4
2017-May-22 06:28N 60°24' E 005°14'0 0.0
2017-May-22 05:57N 60°24' E 005°14'0 0.0
2017-May-22 05:22N 60°24' E 005°14'0 0.7
2017-May-22 04:46N 60°24' E 005°15'2 6.7
2017-May-22 04:31N 60°24' E 005°19'0 0.2
2017-May-22 04:01N 60°24' E 005°19'2 0.1
2017-May-20 15:11N 60°24' E 005°14'214.4
2017-May-20 15:00N 60°24' E 005°19'0 0.8
2017-May-20 14:29N 60°24' E 005°19'1 1.0
2017-May-20 13:29N 60°24' E 005°17'1 1.6
2017-May-20 12:58N 60°24' E 005°15'0 0.0
2017-May-20 12:27N 60°24' E 005°15'0 0.2
2017-May-20 11:55N 60°24' E 005°15'2 5.4
2017-May-20 11:30N 60°24' E 005°19'0 0.0
2017-May-20 11:00N 60°24' E 005°19'1 2.6
2017-May-20 10:26N 60°24' E 005°16'1 1.2
2017-May-20 09:58N 60°24' E 005°15'1 1.3
2017-May-20 09:24N 60°24' E 005°17'1 3.0
2017-May-20 08:58N 60°24' E 005°19'2 3.4
2017-May-20 08:30N 60°24' E 005°16'0 0.6
2017-May-20 08:00N 60°24' E 005°17'0 0.4
2017-May-20 07:29N 60°24' E 005°16'1 1.2
2017-May-20 07:00N 60°24' E 005°15'0 0.0
2017-May-19 16:39N 60°24' E 005°16'211.2
2017-May-19 16:30N 60°24' E 005°19'0 0.0
2017-May-19 16:00N 60°24' E 005°19'0 0.0
2017-May-19 15:31N 60°24' E 005°19'0 0.0
2017-May-19 15:00N 60°24' E 005°19'0 0.4
2017-May-19 14:00N 60°24' E 005°19'2 3.0
2017-May-19 13:29N 60°24' E 005°16'0 0.2
2017-May-19 12:56N 60°24' E 005°15'0 0.2
2017-May-19 12:24N 60°24' E 005°16'2 4.8
2017-May-19 12:00N 60°24' E 005°19'2 4.1
2017-May-19 11:27N 60°24' E 005°15'2 5.1
2017-May-19 11:00N 60°24' E 005°19'2 3.9
2017-May-19 10:25N 60°24' E 005°15'0 0.2
2017-May-19 09:56N 60°24' E 005°15'0 0.1
2017-May-19 09:27N 60°24' E 005°14'2 5.5
2017-May-19 09:00N 60°24' E 005°19'2 4.4
2017-May-19 08:30N 60°24' E 005°15'0 0.8
2017-May-19 07:59N 60°24' E 005°16'0 0.0
2017-May-19 07:29N 60°24' E 005°16'1 1.1
2017-May-19 07:00N 60°24' E 005°15'1 1.0
2017-May-19 06:27N 60°24' E 005°14'0 0.1
2017-May-19 05:58N 60°24' E 005°14'1 1.1
2017-May-19 05:20N 60°24' E 005°15'1 3.6
2017-May-19 05:00N 60°24' E 005°17'1 1.5
2017-May-19 04:31N 60°24' E 005°19'0 0.4
2017-May-19 04:00N 60°24' E 005°19'2 0.2
2017-May-18 16:40N 60°24' E 005°14'315.0
2017-May-18 16:30N 60°24' E 005°19'0 0.0
2017-May-18 16:00N 60°24' E 005°19'0 0.0
2017-May-18 15:30N 60°24' E 005°19'0 0.0
2017-May-18 15:00N 60°24' E 005°19'1 0.5
2017-May-18 14:00N 60°24' E 005°18'1 2.1
2017-May-18 13:29N 60°24' E 005°16'1 1.3
2017-May-18 12:53N 60°24' E 005°18'0 0.1
2017-May-18 12:23N 60°24' E 005°18'1 2.3
2017-May-18 12:00N 60°24' E 005°19'1 1.4
2017-May-18 11:21N 60°24' E 005°18'1 2.6
2017-May-18 11:00N 60°24' E 005°19'1 1.6
2017-May-18 10:22N 60°24' E 005°17'0 0.2
2017-May-18 09:53N 60°24' E 005°18'1 1.4
2017-May-18 09:23N 60°24' E 005°16'2 4.1
2017-May-18 09:00N 60°24' E 005°19'2 4.5
2017-May-18 08:30N 60°24' E 005°15'1 2.4
2017-May-18 07:56N 60°24' E 005°18'1 3.2
2017-May-18 07:30N 60°24' E 005°15'1 1.5
2017-May-18 06:58N 60°24' E 005°16'1 1.2
2017-May-18 06:26N 60°24' E 005°15'0 0.2
2017-May-18 05:55N 60°24' E 005°15'0 0.3
2017-May-18 05:20N 60°24' E 005°15'1 3.6
2017-May-18 05:00N 60°24' E 005°17'1 1.9
2017-May-18 04:31N 60°24' E 005°19'0 0.0
2017-May-18 04:01N 60°24' E 005°19'2 0.1
2017-May-17 16:39N 60°24' E 005°16'212.5
2017-May-17 16:30N 60°24' E 005°19'0 0.0
2017-May-17 16:00N 60°24' E 005°19'0 0.0
2017-May-17 15:30N 60°24' E 005°19'0 0.0
2017-May-17 15:00N 60°24' E 005°19'2 1.8
2017-May-17 13:47N 60°24' E 005°15'2 7.4
2017-May-17 13:30N 60°24' E 005°19'0 0.3
2017-May-17 13:00N 60°24' E 005°19'0 0.0
2017-May-17 12:30N 60°24' E 005°19'0 0.4
2017-May-17 12:00N 60°24' E 005°19'2 4.2
2017-May-17 11:26N 60°24' E 005°14'3 4.6
2017-May-17 10:53N 60°24' E 005°19'1 1.9
2017-May-17 10:24N 60°24' E 005°18'  
Track history (hours):
 
Tides and Currents Weather Stations Pressure Air Temp Water Temp Dewpoint Dewpoint Depression Visibility Wind Speed Wind Dir Waves Ship Positions

Ekspressen

Last reported at 2017-May-24 15:41 UTC. Time now 2017-May-27 04:20 UTC.
Position N 60°24' E 005°14'.

Length 33 m; draft 2 m.

Type: High speed craft. MMSI: 258416000.

Date/timePositionNaut miles runAvg speedWind from/ knotsBaromVisibWave heightAir tempDewpointWater temp
2017-May-24 15:41N 60°24' E 005°14'316.0
2017-May-24 15:30N 60°24' E 005°19'0 0.0
2017-May-24 15:00N 60°24' E 005°19'0 0.7
2017-May-24 14:30N 60°24' E 005°19'2 1.8
2017-May-24 13:29N 60°24' E 005°15'0 0.2
2017-May-24 12:56N 60°24' E 005°15'1 1.2
2017-May-24 12:26N 60°24' E 005°14'3 6.2
2017-May-24 12:01N 60°24' E 005°19'2 3.3
2017-May-24 11:25N 60°24' E 005°15'2 4.9
2017-May-24 11:00N 60°24' E 005°19'3 4.6
2017-May-24 10:26N 60°24' E 005°14'0 0.7
2017-May-24 09:56N 60°24' E 005°15'0 0.1
2017-May-24 09:26N 60°24' E 005°15'2 5.5
2017-May-24 09:00N 60°24' E 005°19'2 4.3
2017-May-24 08:30N 60°24' E 005°15'0 0.0
2017-May-24 08:00N 60°24' E 005°15'0 0.1
2017-May-24 07:30N 60°24' E 005°15'0 0.2
2017-May-24 07:00N 60°24' E 005°15'1 1.0
2017-May-24 06:28N 60°24' E 005°14'0 0.5
2017-May-24 05:56N 60°24' E 005°14'0 0.3
2017-May-24 05:19N 60°24' E 005°15'1 3.8
2017-May-24 05:00N 60°24' E 005°17'1 1.3
2017-May-24 04:31N 60°24' E 005°19'0 0.8
2017-May-24 04:01N 60°24' E 005°19'2 0.2
2017-May-23 16:10N 60°24' E 005°15'212.5
2017-May-23 16:00N 60°24' E 005°19'0 0.0
2017-May-23 15:31N 60°24' E 005°19'0 0.0
2017-May-23 15:00N 60°24' E 005°19'0 0.4
2017-May-23 13:59N 60°24' E 005°19'0 0.1
2017-May-23 13:25N 60°24' E 005°19'0 0.4
2017-May-23 12:53N 60°24' E 005°18'0 0.5
2017-May-23 12:24N 60°24' E 005°18'1 2.0
2017-May-23 12:00N 60°24' E 005°19'1 1.5
2017-May-23 11:22N 60°24' E 005°18'1 2.5
2017-May-23 11:00N 60°24' E 005°19'1 1.0
2017-May-23 10:23N 60°24' E 005°18'0 0.7
2017-May-23 09:54N 60°24' E 005°18'1 2.5
2017-May-23 09:27N 60°24' E 005°15'2 4.6
2017-May-23 09:00N 60°24' E 005°19'1 1.7
2017-May-23 08:27N 60°24' E 005°18'0 0.1
2017-May-23 07:57N 60°24' E 005°18'0 0.1
2017-May-23 07:27N 60°24' E 005°18'1 3.1
2017-May-23 07:00N 60°24' E 005°15'0 0.7
2017-May-23 06:30N 60°24' E 005°14'0 0.4
2017-May-23 05:59N 60°24' E 005°14'0 0.0
2017-May-23 05:23N 60°24' E 005°14'2 4.2
2017-May-23 05:00N 60°24' E 005°17'1 2.0
2017-May-23 04:30N 60°24' E 005°19'0 0.0
2017-May-23 04:01N 60°24' E 005°19'2 0.2
2017-May-22 16:12N 60°24' E 005°14'212.8
2017-May-22 16:00N 60°24' E 005°19'0 0.0
2017-May-22 15:30N 60°24' E 005°19'0 0.0
2017-May-22 15:01N 60°24' E 005°19'0 0.4
2017-May-22 14:00N 60°24' E 005°19'1 1.4
2017-May-22 13:28N 60°24' E 005°17'0 0.5
2017-May-22 12:52N 60°24' E 005°18'0 0.0
2017-May-22 12:21N 60°24' E 005°18'1 2.4
2017-May-22 12:00N 60°24' E 005°19'0 0.0
2017-May-22 11:26N 60°24' E 005°19'0 0.0
2017-May-22 10:56N 60°24' E 005°19'0 0.0
2017-May-22 10:29N 60°24' E 005°19'0 0.0
2017-May-22 09:32N 60°24' E 005°19'0 0.0
2017-May-22 09:29N 60°24' E 005°19'0 0.0
2017-May-22 08:56N 60°24' E 005°19'0 0.0
2017-May-22 08:17N 60°24' E 005°19'0 0.0
2017-May-22 07:56N 60°24' E 005°19'0 0.0
2017-May-22 07:30N 60°24' E 005°19'1 2.5
2017-May-22 07:00N 60°24' E 005°17'1 2.4
2017-May-22 06:28N 60°24' E 005°14'0 0.0
2017-May-22 05:57N 60°24' E 005°14'0 0.0
2017-May-22 05:22N 60°24' E 005°14'0 0.7
2017-May-22 04:46N 60°24' E 005°15'2 6.7
2017-May-22 04:31N 60°24' E 005°19'0 0.2
2017-May-22 04:01N 60°24' E 005°19'2 0.1
2017-May-20 15:11N 60°24' E 005°14'214.4
2017-May-20 15:00N 60°24' E 005°19'0 0.8
2017-May-20 14:29N 60°24' E 005°19'1 1.0
2017-May-20 13:29N 60°24' E 005°17'1 1.6
2017-May-20 12:58N 60°24' E 005°15'0 0.0
2017-May-20 12:27N 60°24' E 005°15'0 0.2
2017-May-20 11:55N 60°24' E 005°15'2 5.4
2017-May-20 11:30N 60°24' E 005°19'0 0.0
2017-May-20 11:00N 60°24' E 005°19'1 2.6
2017-May-20 10:26N 60°24' E 005°16'1 1.2
2017-May-20 09:58N 60°24' E 005°15'1 1.3
2017-May-20 09:24N 60°24' E 005°17'1 3.0
2017-May-20 08:58N 60°24' E 005°19'2 3.4
2017-May-20 08:30N 60°24' E 005°16'0 0.6
2017-May-20 08:00N 60°24' E 005°17'0 0.4
2017-May-20 07:29N 60°24' E 005°16'1 1.2
2017-May-20 07:00N 60°24' E 005°15'0 0.0
2017-May-19 16:39N 60°24' E 005°16'211.2
2017-May-19 16:30N 60°24' E 005°19'0 0.0
2017-May-19 16:00N 60°24' E 005°19'0 0.0
2017-May-19 15:31N 60°24' E 005°19'0 0.0
2017-May-19 15:00N 60°24' E 005°19'0 0.4
2017-May-19 14:00N 60°24' E 005°19'2 3.0
2017-May-19 13:29N 60°24' E 005°16'0 0.2
2017-May-19 12:56N 60°24' E 005°15'0 0.2
2017-May-19 12:24N 60°24' E 005°16'2 4.8
2017-May-19 12:00N 60°24' E 005°19'2 4.1
2017-May-19 11:27N 60°24' E 005°15'2 5.1
2017-May-19 11:00N 60°24' E 005°19'2 3.9
2017-May-19 10:25N 60°24' E 005°15'0 0.2
2017-May-19 09:56N 60°24' E 005°15'0 0.1
2017-May-19 09:27N 60°24' E 005°14'2 5.5
2017-May-19 09:00N 60°24' E 005°19'2 4.4
2017-May-19 08:30N 60°24' E 005°15'0 0.8
2017-May-19 07:59N 60°24' E 005°16'0 0.0
2017-May-19 07:29N 60°24' E 005°16'1 1.1
2017-May-19 07:00N 60°24' E 005°15'1 1.0
2017-May-19 06:27N 60°24' E 005°14'0 0.1
2017-May-19 05:58N 60°24' E 005°14'1 1.1
2017-May-19 05:20N 60°24' E 005°15'1 3.6
2017-May-19 05:00N 60°24' E 005°17'1 1.5
2017-May-19 04:31N 60°24' E 005°19'0 0.4
2017-May-19 04:00N 60°24' E 005°19'2 0.2
2017-May-18 16:40N 60°24' E 005°14'315.0
2017-May-18 16:30N 60°24' E 005°19'0 0.0
2017-May-18 16:00N 60°24' E 005°19'0 0.0
2017-May-18 15:30N 60°24' E 005°19'0 0.0
2017-May-18 15:00N 60°24' E 005°19'1 0.5
2017-May-18 14:00N 60°24' E 005°18'1 2.1
2017-May-18 13:29N 60°24' E 005°16'1 1.3
2017-May-18 12:53N 60°24' E 005°18'0 0.1
2017-May-18 12:23N 60°24' E 005°18'1 2.3
2017-May-18 12:00N 60°24' E 005°19'1 1.4
2017-May-18 11:21N 60°24' E 005°18'1 2.6
2017-May-18 11:00N 60°24' E 005°19'1 1.6
2017-May-18 10:22N 60°24' E 005°17'0 0.2
2017-May-18 09:53N 60°24' E 005°18'1 1.4
2017-May-18 09:23N 60°24' E 005°16'2 4.1
2017-May-18 09:00N 60°24' E 005°19'2 4.5
2017-May-18 08:30N 60°24' E 005°15'1 2.4
2017-May-18 07:56N 60°24' E 005°18'1 3.2
2017-May-18 07:30N 60°24' E 005°15'1 1.5
2017-May-18 06:58N 60°24' E 005°16'1 1.2
2017-May-18 06:26N 60°24' E 005°15'0 0.2
2017-May-18 05:55N 60°24' E 005°15'0 0.3
2017-May-18 05:20N 60°24' E 005°15'1 3.6
2017-May-18 05:00N 60°24' E 005°17'1 1.9
2017-May-18 04:31N 60°24' E 005°19'0 0.0
2017-May-18 04:01N 60°24' E 005°19'2 0.1
2017-May-17 16:39N 60°24' E 005°16'212.5
2017-May-17 16:30N 60°24' E 005°19'0 0.0
2017-May-17 16:00N 60°24' E 005°19'0 0.0
2017-May-17 15:30N 60°24' E 005°19'0 0.0
2017-May-17 15:00N 60°24' E 005°19'2 1.8
2017-May-17 13:47N 60°24' E 005°15'2 7.4
2017-May-17 13:30N 60°24' E 005°19'0 0.3
2017-May-17 13:00N 60°24' E 005°19'0 0.0
2017-May-17 12:30N 60°24' E 005°19'0 0.4
2017-May-17 12:00N 60°24' E 005°19'2 4.2
2017-May-17 11:26N 60°24' E 005°14'3 4.6
2017-May-17 10:53N 60°24' E 005°19'1 1.9
2017-May-17 10:24N 60°24' E 005°18'  

Dump ship's entire track history